createdAt,value
2018-12-01T00:02:10.500Z,95.45
2018-12-01T00:04:45.025Z,95.34
2018-12-01T00:07:18.580Z,95.06
2018-12-01T00:09:47.871Z,95.39
2018-12-01T00:12:18.191Z,95.62
2018-12-01T00:14:47.817Z,95.72
2018-12-01T00:17:17.739Z,96.00
2018-12-01T00:19:47.040Z,96.22
2018-12-01T00:22:16.314Z,96.23
2018-12-01T00:24:45.873Z,96.60
2018-12-01T00:27:15.157Z,96.65
2018-12-01T00:29:44.718Z,96.29
2018-12-01T00:32:14.011Z,96.47
2018-12-01T00:34:43.264Z,96.45
2018-12-01T00:37:12.836Z,96.41
2018-12-01T00:39:42.320Z,96.38
2018-12-01T00:42:12.418Z,96.45
2018-12-01T00:44:41.953Z,96.55
2018-12-01T00:47:10.942Z,96.48
2018-12-01T00:49:40.231Z,96.41
2018-12-01T00:52:10.582Z,96.21
2018-12-01T00:54:44.710Z,96.41
2018-12-01T00:57:14.068Z,96.39
2018-12-01T00:59:43.352Z,96.35
2018-12-01T01:02:12.665Z,96.57
2018-12-01T01:04:41.396Z,96.34
2018-12-01T01:07:10.636Z,96.70
2018-12-01T01:09:39.996Z,96.54
2018-12-01T01:12:09.275Z,96.52
2018-12-01T01:14:38.836Z,96.45
2018-12-01T01:17:08.136Z,96.13
2018-12-01T01:19:37.407Z,96.36
2018-12-01T01:22:07.270Z,96.31
2018-12-01T01:24:36.544Z,96.59
2018-12-01T01:27:05.933Z,96.58
2018-12-01T01:29:35.852Z,96.75
2018-12-01T01:32:06.066Z,97.06
2018-12-01T01:34:35.685Z,96.84
2018-12-01T01:37:05.002Z,97.12
2018-12-01T01:39:34.378Z,97.09
2018-12-01T01:42:03.721Z,97.30
2018-12-01T01:44:33.104Z,97.17
2018-12-01T01:47:02.412Z,97.72
2018-12-01T01:49:32.280Z,97.76
2018-12-01T01:52:01.283Z,97.49
2018-12-01T01:54:30.565Z,97.71
2018-12-01T01:57:00.290Z,97.60
2018-12-01T01:59:29.588Z,97.44
2018-12-01T02:01:59.678Z,97.56
2018-12-01T02:04:29.270Z,97.52
2018-12-01T02:06:59.028Z,97.63
2018-12-01T02:09:28.481Z,97.74
2018-12-01T02:11:58.107Z,97.70
2018-12-01T02:14:27.673Z,97.54
2018-12-01T02:16:57.264Z,97.76
2018-12-01T02:19:26.411Z,97.68
2018-12-01T02:21:55.674Z,97.44
2018-12-01T02:24:25.281Z,97.41
2018-12-01T02:26:54.573Z,97.56
2018-12-01T02:29:24.375Z,97.30
2018-12-01T02:31:53.541Z,97.09
2018-12-01T02:34:23.106Z,97.19
2018-12-01T02:36:52.401Z,97.39
2018-12-01T02:39:21.982Z,97.48
2018-12-01T02:41:51.271Z,97.77
2018-12-01T02:44:20.648Z,97.97
2018-12-01T02:46:55.314Z,98.06
2018-12-01T02:49:24.613Z,97.79
2018-12-01T02:51:54.209Z,97.93
2018-12-01T02:54:23.480Z,97.95
2018-12-01T02:56:53.053Z,97.83
2018-12-01T02:59:22.451Z,97.89
2018-12-01T03:01:51.721Z,97.66
2018-12-01T03:04:21.279Z,97.77
2018-12-01T03:06:50.564Z,98.15
2018-12-01T03:09:20.444Z,97.98
2018-12-01T03:11:49.872Z,98.01
2018-12-01T03:14:19.668Z,97.67
2018-12-01T03:16:48.939Z,98.12
2018-12-01T03:19:18.582Z,98.37
2018-12-01T03:21:48.164Z,98.28
2018-12-01T03:24:18.500Z,98.79
2018-12-01T03:26:47.779Z,99.35
2018-12-01T03:29:18.263Z,99.50
2018-12-01T03:31:47.540Z,99.00
2018-12-01T03:34:16.388Z,99.12
2018-12-01T03:36:45.673Z,99.07
2018-12-01T03:39:15.231Z,98.80
2018-12-01T03:41:44.520Z,98.98
2018-12-01T03:44:13.799Z,98.58
2018-12-01T03:46:43.214Z,98.63
2018-12-01T03:49:12.492Z,97.81
2018-12-01T03:51:41.824Z,97.64
2018-12-01T03:54:11.092Z,97.83
2018-12-01T03:56:40.176Z,97.74
2018-12-01T03:59:09.226Z,97.28
2018-12-01T04:01:38.557Z,97.06
2018-12-01T04:04:07.788Z,96.99
2018-12-01T04:06:37.250Z,97.23
2018-12-01T04:09:05.896Z,96.63
2018-12-01T04:11:35.445Z,96.53
2018-12-01T04:14:04.150Z,95.97
2018-12-01T04:16:33.548Z,95.99
2018-12-01T04:19:02.844Z,96.17
2018-12-01T04:21:32.553Z,95.90
2018-12-01T04:24:01.499Z,95.70
2018-12-01T04:26:30.556Z,95.61
2018-12-01T04:28:59.607Z,96.00
2018-12-01T04:31:28.859Z,96.00
2018-12-01T04:33:58.158Z,95.51
2018-12-01T04:36:27.708Z,95.55
2018-12-01T04:38:56.984Z,95.70
2018-12-01T04:41:27.530Z,95.17
2018-12-01T04:43:56.648Z,95.23
2018-12-01T04:46:25.892Z,95.10
2018-12-01T04:48:55.416Z,95.46
2018-12-01T04:51:24.701Z,94.91
2018-12-01T04:53:53.955Z,95.07
2018-12-01T04:56:23.520Z,94.76
2018-12-01T04:58:52.817Z,94.69
2018-12-01T05:01:22.779Z,94.84
2018-12-01T05:03:52.418Z,94.84
2018-12-01T05:06:21.709Z,94.69
2018-12-01T05:08:50.991Z,94.92
2018-12-01T05:11:20.224Z,94.76
2018-12-01T05:13:49.816Z,95.03
2018-12-01T05:16:19.368Z,94.47
2018-12-01T05:18:48.693Z,94.65
2018-12-01T05:21:18.793Z,94.17
2018-12-01T05:23:48.063Z,94.25
2018-12-01T05:26:18.907Z,94.04
2018-12-01T05:28:48.509Z,94.44
2018-12-01T05:31:18.867Z,94.47
2018-12-01T05:33:47.888Z,93.91
2018-12-01T05:36:17.175Z,94.36
2018-12-01T05:38:46.723Z,94.05
2018-12-01T05:41:15.652Z,93.86
2018-12-01T05:43:44.940Z,93.88
2018-12-01T05:46:14.511Z,93.61
2018-12-01T05:48:43.787Z,93.96
2018-12-01T05:51:12.765Z,93.61
2018-12-01T05:53:42.054Z,93.52
2018-12-01T05:56:11.332Z,93.31
2018-12-01T05:58:40.600Z,93.56
2018-12-01T06:01:09.876Z,93.32
2018-12-01T06:03:39.447Z,93.59
2018-12-01T06:06:08.725Z,93.22
2018-12-01T06:08:38.015Z,93.28
2018-12-01T06:11:07.236Z,93.00
2018-12-01T06:13:36.807Z,93.04
2018-12-01T06:16:06.085Z,92.41
2018-12-01T06:18:35.416Z,92.62
2018-12-01T06:21:04.458Z,92.90
2018-12-01T06:23:33.841Z,92.48
2018-12-01T06:26:02.740Z,92.63
2018-12-01T06:28:32.030Z,92.47
2018-12-01T06:31:01.648Z,92.49
2018-12-01T06:33:31.209Z,92.46
2018-12-01T06:36:00.837Z,92.35
2018-12-01T06:38:30.116Z,92.81
2018-12-01T06:40:59.724Z,92.39
2018-12-01T06:43:29.004Z,92.69
2018-12-01T06:45:58.583Z,92.64
2018-12-01T06:48:28.153Z,92.60
2018-12-01T06:50:57.727Z,92.44
2018-12-01T06:53:27.004Z,92.48
2018-12-01T06:55:56.613Z,92.53
2018-12-01T06:58:26.059Z,92.42
2018-12-01T07:00:55.396Z,92.53
2018-12-01T07:03:24.921Z,92.47
2018-12-01T07:05:53.883Z,92.18
2018-12-01T07:08:23.158Z,92.62
2018-12-01T07:10:52.753Z,92.53
2018-12-01T07:13:22.045Z,92.49
2018-12-01T07:15:51.623Z,93.17
2018-12-01T07:21:19.644Z,92.75
2018-12-01T07:23:48.906Z,92.94
2018-12-01T07:26:19.148Z,92.90
2018-12-01T07:28:48.713Z,92.77
2018-12-01T07:31:19.166Z,92.87
2018-12-01T07:33:48.730Z,92.82
2018-12-01T07:36:19.080Z,93.44
2018-12-01T07:38:48.387Z,93.24
2018-12-01T07:41:19.112Z,93.66
2018-12-01T07:43:48.721Z,93.45
2018-12-01T07:46:19.214Z,93.53
2018-12-01T07:48:48.486Z,94.28
2018-12-01T07:51:19.180Z,93.87
2018-12-01T07:53:48.725Z,93.95
2018-12-01T07:56:19.153Z,94.56
2018-12-01T07:58:48.592Z,94.54
2018-12-01T08:01:19.756Z,94.39
2018-12-01T08:03:49.040Z,93.82
2018-12-01T08:06:19.206Z,94.34
2018-12-01T08:08:48.758Z,94.33
2018-12-01T08:11:19.260Z,94.48
2018-12-01T08:13:49.191Z,94.41
2018-12-01T08:16:19.240Z,94.05
2018-12-01T08:18:48.563Z,93.97
2018-12-01T08:21:18.971Z,94.65
2018-12-01T08:23:47.904Z,94.23
2018-12-01T08:26:17.188Z,94.26
2018-12-01T08:28:46.216Z,93.76
2018-12-01T08:31:15.771Z,92.84
2018-12-01T08:33:45.676Z,92.33
2018-12-01T08:36:21.996Z,91.40
2018-12-01T08:38:51.431Z,91.22
2018-12-01T08:41:20.666Z,90.72
2018-12-01T08:43:49.981Z,90.33
2018-12-01T08:46:19.268Z,90.60
2018-12-01T08:48:48.262Z,90.23
2018-12-01T08:51:17.535Z,90.37
2018-12-01T08:53:47.015Z,89.88
2018-12-01T08:56:16.767Z,89.70
2018-12-01T08:58:46.060Z,89.25
2018-12-01T09:01:15.573Z,88.00
2018-12-01T09:03:44.938Z,87.76
2018-12-01T09:06:14.209Z,87.76
2018-12-01T09:08:43.459Z,87.94
2018-12-01T09:11:12.982Z,87.95
2018-12-01T09:13:41.920Z,88.00
2018-12-01T09:16:10.852Z,87.88
2018-12-01T09:18:40.129Z,88.65
2018-12-01T09:21:09.392Z,88.68
2018-12-01T09:23:39.126Z,88.67
2018-12-01T09:26:08.549Z,88.72
2018-12-01T09:28:37.958Z,87.10
2018-12-01T09:31:07.206Z,86.85
2018-12-01T09:33:36.783Z,86.99
2018-12-01T09:36:05.795Z,87.42
2018-12-01T09:38:35.343Z,87.02
2018-12-01T09:41:04.279Z,87.31
2018-12-01T09:43:33.195Z,87.46
2018-12-01T09:46:02.471Z,87.45
2018-12-01T09:48:32.022Z,87.06
2018-12-01T09:51:01.062Z,87.33
2018-12-01T09:53:31.418Z,87.18
2018-12-01T09:56:00.976Z,86.28
2018-12-01T09:58:30.571Z,85.99
2018-12-01T10:01:00.150Z,85.35
2018-12-01T10:03:29.424Z,85.05
2018-12-01T10:05:58.690Z,85.42
2018-12-01T10:08:27.955Z,85.75
2018-12-01T10:10:57.228Z,86.05
2018-12-01T10:13:26.506Z,85.84
2018-12-01T10:15:56.078Z,85.94
2018-12-01T10:18:25.368Z,85.94
2018-12-01T10:20:54.636Z,85.59
2018-12-01T10:23:23.860Z,85.17
2018-12-01T10:25:53.134Z,84.09
2018-12-01T10:28:22.468Z,84.18
2018-12-01T10:30:52.043Z,84.81
2018-12-01T10:33:21.389Z,84.21
2018-12-01T10:35:50.060Z,83.74
2018-12-01T10:38:19.648Z,83.62
2018-12-01T10:40:49.168Z,82.99
2018-12-01T10:43:19.507Z,83.64
2018-12-01T10:45:49.076Z,83.25
2018-12-01T10:48:19.392Z,83.10
2018-12-01T10:50:48.664Z,82.18
2018-12-01T10:53:19.615Z,81.32
2018-12-01T10:55:48.847Z,80.49
2018-12-01T10:58:19.304Z,78.31
2018-12-01T11:00:47.993Z,77.54
2018-12-01T11:03:16.808Z,76.98
2018-12-01T11:05:46.001Z,76.45
2018-12-01T11:08:14.968Z,76.33
2018-12-01T11:10:43.958Z,75.05
2018-12-01T11:13:13.064Z,75.21
2018-12-01T11:15:42.105Z,74.05
2018-12-01T11:18:11.418Z,73.22
2018-12-01T11:20:40.539Z,73.20
2018-12-01T11:23:10.251Z,72.78
2018-12-01T11:25:39.368Z,71.70
2018-12-01T11:28:08.063Z,72.15
2018-12-01T11:30:37.002Z,72.40
2018-12-01T11:33:06.135Z,72.51
2018-12-01T11:35:35.317Z,70.58
2018-12-01T11:38:04.017Z,70.24
2018-12-01T11:40:33.568Z,70.67
2018-12-01T11:43:02.832Z,70.82
2018-12-01T11:45:32.041Z,71.54
2018-12-01T11:48:01.278Z,71.69
2018-12-01T11:50:30.831Z,71.96
2018-12-01T11:53:00.015Z,71.85
2018-12-01T11:55:29.623Z,71.70
2018-12-01T11:57:58.555Z,70.48
2018-12-01T12:00:27.243Z,70.61
2018-12-01T12:02:55.896Z,70.51
2018-12-01T12:05:25.457Z,69.72
2018-12-01T12:08:14.736Z,68.46
2018-12-01T12:10:43.987Z,67.73
2018-12-01T12:13:13.054Z,67.62
2018-12-01T12:15:42.146Z,66.98
2018-12-01T12:18:11.167Z,66.29
2018-12-01T12:20:40.496Z,67.03
2018-12-01T12:23:09.434Z,67.23
2018-12-01T12:25:38.366Z,66.41
2018-12-01T12:28:07.296Z,65.71
2018-12-01T12:30:36.284Z,66.26
2018-12-01T12:33:05.242Z,65.87
2018-12-01T12:35:34.799Z,65.89
2018-12-01T12:38:04.492Z,65.21
2018-12-01T12:40:33.797Z,64.96
2018-12-01T12:43:03.101Z,65.18
2018-12-01T12:45:32.718Z,65.19
2018-12-01T12:48:01.664Z,64.83
2018-12-01T12:50:30.988Z,65.17
2018-12-01T12:53:00.596Z,65.74
2018-12-01T12:55:29.866Z,65.33
2018-12-01T12:57:59.417Z,65.66
2018-12-01T13:00:29.110Z,65.52
2018-12-01T13:02:58.818Z,66.06
2018-12-01T13:05:27.743Z,66.12
2018-12-01T13:07:56.775Z,66.23
2018-12-01T13:10:26.048Z,67.11
2018-12-01T13:12:55.572Z,67.44
2018-12-01T13:15:25.118Z,68.23
2018-12-01T13:17:54.708Z,69.29
2018-12-01T13:20:23.672Z,69.37
2018-12-01T13:22:52.940Z,70.48
2018-12-01T13:25:22.498Z,70.95
2018-12-01T13:27:51.444Z,70.79
2018-12-01T13:30:20.424Z,71.52
2018-12-01T13:32:49.356Z,71.84
2018-12-01T13:35:19.661Z,71.22
2018-12-01T13:37:49.529Z,70.93
2018-12-01T13:40:19.565Z,71.02
2018-12-01T13:42:48.524Z,71.09
2018-12-01T13:45:17.789Z,70.91
2018-12-01T13:47:46.823Z,71.09
2018-12-01T13:50:15.251Z,71.33
2018-12-01T13:52:44.761Z,72.20
2018-12-01T13:55:13.412Z,70.95
2018-12-01T13:57:42.710Z,71.54
2018-12-01T14:00:11.880Z,71.75
2018-12-01T14:02:41.051Z,72.65
2018-12-01T14:08:04.492Z,73.73
2018-12-01T14:10:33.602Z,73.33
2018-12-01T14:13:02.902Z,73.28
2018-12-01T14:15:31.835Z,72.88
2018-12-01T14:18:00.551Z,73.02
2018-12-01T14:20:29.823Z,73.00
2018-12-01T14:22:59.149Z,73.34
2018-12-01T14:25:28.691Z,73.51
2018-12-01T14:27:57.727Z,73.62
2018-12-01T14:30:26.658Z,73.51
2018-12-01T14:32:55.949Z,73.91
2018-12-01T14:35:25.487Z,74.19
2018-12-01T14:37:54.487Z,74.86
2018-12-01T14:40:23.988Z,74.69
2018-12-01T14:42:52.926Z,74.79
2018-12-01T14:45:22.184Z,75.05
2018-12-01T14:47:51.123Z,75.50
2018-12-01T14:50:20.671Z,75.37
2018-12-01T14:52:49.611Z,75.55
2018-12-01T14:55:20.291Z,76.05
2018-12-01T14:57:49.768Z,76.32
2018-12-01T15:00:19.535Z,76.20
2018-12-01T15:02:48.647Z,76.38
2018-12-01T15:05:17.779Z,76.40
2018-12-01T15:07:47.020Z,76.75
2018-12-01T15:10:15.971Z,76.60
2018-12-01T15:12:44.903Z,77.28
2018-12-01T15:15:14.349Z,77.96
2018-12-01T15:17:43.564Z,77.80
2018-12-01T15:20:12.660Z,78.19
2018-12-01T15:22:42.111Z,78.84
2018-12-01T15:25:11.146Z,79.04
2018-12-01T15:27:40.362Z,78.83
2018-12-01T15:30:09.616Z,78.82
2018-12-01T15:32:38.736Z,78.70
2018-12-01T15:35:07.605Z,78.90
2018-12-01T15:37:37.015Z,79.14
2018-12-01T15:40:05.706Z,79.13
2018-12-01T15:42:35.255Z,79.25
2018-12-01T15:45:03.962Z,79.70
2018-12-01T15:47:33.231Z,79.56
2018-12-01T15:50:02.180Z,80.02
2018-12-01T15:52:32.005Z,80.10
2018-12-01T15:55:00.985Z,80.39
2018-12-01T15:57:30.233Z,80.09
2018-12-01T15:59:59.559Z,80.81
2018-12-01T16:02:28.781Z,81.03
2018-12-01T16:04:58.045Z,80.97
2018-12-01T16:07:27.308Z,81.03
2018-12-01T16:09:56.851Z,81.12
2018-12-01T16:12:26.272Z,81.31
2018-12-01T16:14:55.202Z,81.16
2018-12-01T16:17:24.132Z,80.62
2018-12-01T16:19:53.068Z,80.46
2018-12-01T16:22:22.353Z,80.65
2018-12-01T16:24:51.889Z,80.30
2018-12-01T16:27:21.652Z,80.30
2018-12-01T16:29:50.990Z,80.41
2018-12-01T16:32:20.516Z,80.19
2018-12-01T16:34:50.083Z,80.36
2018-12-01T16:37:20.386Z,79.62
2018-12-01T16:39:49.926Z,79.92
2018-12-01T16:42:20.377Z,79.76
2018-12-01T16:44:50.956Z,79.83
2018-12-01T16:47:20.183Z,79.74
2018-12-01T16:49:49.449Z,79.87
2018-12-01T16:52:19.717Z,79.58
2018-12-01T16:54:49.196Z,80.06
2018-12-01T16:57:17.916Z,79.60
2018-12-01T16:59:46.886Z,79.83
2018-12-01T17:02:16.159Z,79.92
2018-12-01T17:04:45.411Z,80.34
2018-12-01T17:07:14.678Z,80.31
2018-12-01T17:09:44.062Z,80.18
2018-12-01T17:12:13.014Z,80.35
2018-12-01T17:14:42.262Z,80.00
2018-12-01T17:17:11.194Z,80.36
2018-12-01T17:19:41.004Z,80.60
2018-12-01T17:22:10.332Z,80.05
2018-12-01T17:24:39.589Z,80.54
2018-12-01T17:27:08.494Z,80.34
2018-12-01T17:29:38.163Z,80.06
2018-12-01T17:32:07.428Z,80.52
2018-12-01T17:34:36.609Z,80.40
2018-12-01T17:37:05.611Z,80.13
2018-12-01T17:39:34.860Z,79.89
2018-12-01T17:42:04.198Z,80.47
2018-12-01T17:44:33.621Z,80.62
2018-12-01T17:47:03.205Z,80.27
2018-12-01T17:49:32.303Z,80.33
2018-12-01T17:52:01.753Z,80.18
2018-12-01T17:54:30.975Z,80.10
2018-12-01T17:57:00.081Z,80.40
2018-12-01T17:59:29.711Z,80.49
2018-12-01T18:01:59.424Z,80.43
2018-12-01T18:04:29.591Z,80.06
2018-12-01T18:06:58.837Z,80.34
2018-12-01T18:09:28.500Z,80.34
2018-12-01T18:11:57.752Z,80.10
2018-12-01T18:14:27.302Z,80.36
2018-12-01T18:16:56.578Z,80.33
2018-12-01T18:19:26.345Z,80.05
2018-12-01T18:21:55.616Z,79.51
2018-12-01T18:24:24.909Z,79.95
2018-12-01T18:26:54.455Z,79.73
2018-12-01T18:29:23.699Z,79.66
2018-12-01T18:31:53.388Z,79.62
2018-12-01T18:34:22.667Z,79.88
2018-12-01T18:36:51.595Z,79.14
2018-12-01T18:39:20.708Z,79.61
2018-12-01T18:41:51.606Z,79.28
2018-12-01T18:44:20.874Z,79.22
2018-12-01T18:46:50.391Z,79.00
2018-12-01T18:49:20.484Z,78.38
2018-12-01T18:51:49.739Z,78.89
2018-12-01T18:54:20.061Z,78.46
2018-12-01T18:56:49.453Z,78.19
2018-12-01T18:59:18.730Z,78.25
2018-12-01T19:01:47.932Z,78.52
2018-12-01T19:04:17.421Z,78.06
2018-12-01T19:06:46.743Z,78.36
2018-12-01T19:09:15.767Z,77.95
2018-12-01T19:11:44.697Z,78.01
2018-12-01T19:14:13.981Z,78.14
2018-12-01T19:16:43.388Z,77.91
2018-12-01T19:19:12.644Z,78.16
2018-12-01T19:21:42.047Z,77.31
2018-12-01T19:24:12.440Z,77.58
2018-12-01T19:26:41.394Z,77.85
2018-12-01T19:29:10.856Z,77.70
2018-12-01T19:31:40.548Z,77.52
2018-12-01T19:34:09.808Z,77.73
2018-12-01T19:36:39.358Z,77.84
2018-12-01T19:39:08.374Z,77.80
2018-12-01T19:41:37.699Z,77.55
2018-12-01T19:44:06.954Z,77.89
2018-12-01T19:46:36.502Z,77.84
2018-12-01T19:49:05.551Z,78.09
2018-12-01T19:51:35.239Z,78.13
2018-12-01T19:54:04.279Z,78.12
2018-12-01T19:56:33.853Z,78.42
2018-12-01T19:59:03.399Z,78.55
2018-12-01T20:01:32.457Z,78.01
2018-12-01T20:04:01.719Z,78.10
2018-12-01T20:06:30.992Z,78.24
2018-12-01T20:09:00.845Z,78.09
2018-12-01T20:11:29.439Z,78.01
2018-12-01T20:13:58.710Z,77.89
2018-12-01T20:16:27.982Z,77.97
2018-12-01T20:18:57.548Z,78.49
2018-12-01T20:21:26.822Z,78.65
2018-12-01T20:23:56.092Z,79.16
2018-12-01T20:26:25.651Z,79.30
2018-12-01T20:28:55.018Z,80.04
2018-12-01T20:31:24.570Z,80.43
2018-12-01T20:33:53.491Z,81.04
2018-12-01T20:36:22.851Z,81.10
2018-12-01T20:38:53.953Z,81.56
2018-12-01T20:41:24.804Z,82.08
2018-12-01T20:43:54.219Z,82.60
2018-12-01T20:46:23.991Z,82.91
2018-12-01T20:48:53.620Z,82.81
2018-12-01T20:51:22.883Z,82.73
2018-12-01T20:53:52.257Z,83.21
2018-12-01T20:56:22.370Z,83.73
2018-12-01T20:58:51.699Z,83.82
2018-12-01T21:01:21.071Z,84.16
2018-12-01T21:03:50.681Z,83.91
2018-12-01T21:06:20.994Z,84.12
2018-12-01T21:08:50.110Z,84.23
2018-12-01T21:11:19.776Z,84.44
2018-12-01T21:13:49.011Z,84.86
2018-12-01T21:16:18.323Z,85.12
2018-12-01T21:18:47.928Z,86.08
2018-12-01T21:21:17.196Z,86.58
2018-12-01T21:23:46.740Z,87.72
2018-12-01T21:26:15.994Z,89.48
2018-12-01T21:28:45.563Z,89.96
2018-12-01T21:31:15.279Z,90.09
2018-12-01T21:33:44.711Z,90.41
2018-12-01T21:36:13.951Z,89.11
2018-12-01T21:38:43.229Z,89.60
2018-12-01T21:41:13.305Z,87.77
2018-12-01T21:43:42.758Z,88.46
2018-12-01T21:46:11.662Z,88.48
2018-12-01T21:48:40.932Z,88.84
2018-12-01T21:51:10.187Z,88.80
2018-12-01T21:53:39.733Z,88.90
2018-12-01T21:56:08.652Z,89.70
2018-12-01T21:58:38.279Z,89.46
2018-12-01T22:01:07.203Z,89.07
2018-12-01T22:03:36.752Z,88.93
2018-12-01T22:06:05.806Z,89.76
2018-12-01T22:08:35.087Z,88.93
2018-12-01T22:11:04.192Z,88.64
2018-12-01T22:13:36.159Z,89.03
2018-12-01T22:16:05.126Z,88.87
2018-12-01T22:18:34.654Z,88.72
2018-12-01T22:21:04.195Z,89.11
2018-12-01T22:23:33.415Z,89.25
2018-12-01T22:26:03.257Z,89.92
2018-12-01T22:28:35.330Z,89.74
2018-12-01T22:31:02.037Z,90.00
2018-12-01T22:33:31.489Z,89.87
2018-12-01T22:36:01.034Z,89.73
2018-12-01T22:38:30.380Z,90.33
2018-12-01T22:41:01.887Z,90.25
2018-12-01T22:43:31.371Z,90.01
2018-12-01T22:46:01.006Z,90.45
2018-12-01T22:48:30.560Z,91.34
2018-12-01T22:51:00.133Z,90.94
2018-12-01T22:53:29.512Z,90.82
2018-12-01T22:55:58.720Z,90.90
2018-12-01T22:58:28.284Z,91.01
2018-12-01T23:00:56.731Z,91.48
2018-12-01T23:03:26.138Z,91.64
2018-12-01T23:05:55.152Z,92.50
2018-12-01T23:08:24.164Z,92.59
2018-12-01T23:10:53.290Z,92.65
2018-12-01T23:13:22.199Z,92.60
2018-12-01T23:15:51.406Z,92.59
2018-12-01T23:18:21.251Z,92.16
2018-12-01T23:20:50.179Z,92.33
2018-12-01T23:23:19.436Z,92.96
2018-12-01T23:25:48.355Z,93.00
2018-12-01T23:28:17.281Z,93.32
2018-12-01T23:30:46.257Z,93.25
2018-12-01T23:33:15.184Z,93.44
2018-12-01T23:35:44.440Z,92.98
2018-12-01T23:38:13.370Z,92.60
2018-12-01T23:40:43.088Z,93.08
2018-12-01T23:43:12.356Z,92.84
2018-12-01T23:45:41.604Z,92.09
2018-12-01T23:48:10.533Z,92.31
2018-12-01T23:50:39.783Z,92.52
2018-12-01T23:53:08.984Z,92.42
2018-12-01T23:55:38.256Z,92.59
2018-12-01T23:58:07.198Z,92.78
